sensor_id;sensor_type;location;lat;lon;timestamp;pressure;altitude;pressure_sealevel;temperature;humidity
47530;BME280;33272;51.922;7.730;2023-09-30T00:00:08;145702.91;;;12.91;100.00
47530;BME280;33272;51.922;7.730;2023-09-30T00:02:36;145695.28;;;12.88;100.00
47530;BME280;33272;51.922;7.730;2023-09-30T00:05:03;145691.50;;;12.87;100.00
47530;BME280;33272;51.922;7.730;2023-09-30T00:07:31;145685.13;;;12.84;100.00
47530;BME280;33272;51.922;7.730;2023-09-30T00:09:58;145677.53;;;12.81;100.00
47530;BME280;33272;51.922;7.730;2023-09-30T00:12:25;145677.53;;;12.81;100.00
47530;BME280;33272;51.922;7.730;2023-09-30T00:14:52;145673.69;;;12.80;100.00
47530;BME280;33272;51.922;7.730;2023-09-30T00:17:20;145673.69;;;12.80;100.00
47530;BME280;33272;51.922;7.730;2023-09-30T00:19:47;145666.06;;;12.76;100.00
47530;BME280;33272;51.922;7.730;2023-09-30T00:22:14;145668.63;;;12.78;100.00
47530;BME280;33272;51.922;7.730;2023-09-30T00:24:41;145671.16;;;12.79;100.00
47530;BME280;33272;51.922;7.730;2023-09-30T00:27:08;145666.06;;;12.76;100.00
47530;BME280;33272;51.922;7.730;2023-09-30T00:29:35;145669.91;;;12.78;100.00
47530;BME280;33272;51.922;7.730;2023-09-30T00:32:03;145668.63;;;12.78;100.00
47530;BME280;33272;51.922;7.730;2023-09-30T00:34:34;145675.00;;;12.80;100.00
47530;BME280;33272;51.922;7.730;2023-09-30T00:37:01;145680.03;;;12.82;100.00
47530;BME280;33272;51.922;7.730;2023-09-30T00:39:28;145685.13;;;12.84;100.00
47530;BME280;33272;51.922;7.730;2023-09-30T00:41:56;145687.66;;;12.85;100.00
47530;BME280;33272;51.922;7.730;2023-09-30T00:44:24;145694.03;;;12.88;100.00
47530;BME280;33272;51.922;7.730;2023-09-30T00:46:51;145699.13;;;12.90;100.00
47530;BME280;33272;51.922;7.730;2023-09-30T00:49:19;145704.16;;;12.92;100.00
47530;BME280;33272;51.922;7.730;2023-09-30T00:51:47;145705.44;;;12.92;100.00
47530;BME280;33272;51.922;7.730;2023-09-30T00:54:16;145709.25;;;12.94;100.00
47530;BME280;33272;51.922;7.730;2023-09-30T00:56:45;145709.25;;;12.94;100.00
47530;BME280;33272;51.922;7.730;2023-09-30T00:59:13;145714.34;;;12.96;100.00
47530;BME280;33272;51.922;7.730;2023-09-30T01:01:41;145716.88;;;12.97;100.00
47530;BME280;33272;51.922;7.730;2023-09-30T01:04:09;145719.41;;;12.98;100.00
47530;BME280;33272;51.922;7.730;2023-09-30T01:06:37;145720.66;;;12.98;100.00
47530;BME280;33272;51.922;7.730;2023-09-30T01:09:05;145728.28;;;13.02;100.00
47530;BME280;33272;51.922;7.730;2023-09-30T01:11:32;145727.03;;;13.01;100.00
47530;BME280;33272;51.922;7.730;2023-09-30T01:14:00;145723.25;;;12.99;100.00
47530;BME280;33272;51.922;7.730;2023-09-30T01:16:27;145719.41;;;12.98;100.00
47530;BME280;33272;51.922;7.730;2023-09-30T01:18:54;145718.13;;;12.97;100.00
47530;BME280;33272;51.922;7.730;2023-09-30T01:21:20;145721.97;;;12.99;100.00
47530;BME280;33272;51.922;7.730;2023-09-30T01:23:49;145729.59;;;13.02;100.00
47530;BME280;33272;51.922;7.730;2023-09-30T01:26:17;145727.03;;;13.01;100.00
47530;BME280;33272;51.922;7.730;2023-09-30T01:28:44;145732.13;;;13.03;100.00
47530;BME280;33272;51.922;7.730;2023-09-30T01:31:14;145730.84;;;13.03;100.00
47530;BME280;33272;51.922;7.730;2023-09-30T01:33:41;145730.84;;;13.03;100.00
47530;BME280;33272;51.922;7.730;2023-09-30T01:36:08;145733.38;;;13.04;100.00
47530;BME280;33272;51.922;7.730;2023-09-30T01:38:35;145732.13;;;13.03;100.00
47530;BME280;33272;51.922;7.730;2023-09-30T01:41:03;145735.91;;;13.05;100.00
47530;BME280;33272;51.922;7.730;2023-09-30T01:43:30;145739.75;;;13.06;100.00
47530;BME280;33272;51.922;7.730;2023-09-30T01:45:57;145737.22;;;13.05;100.00
47530;BME280;33272;51.922;7.730;2023-09-30T01:48:24;145737.22;;;13.05;100.00
47530;BME280;33272;51.922;7.730;2023-09-30T01:50:51;145739.75;;;13.06;100.00
47530;BME280;33272;51.922;7.730;2023-09-30T01:53:18;145739.75;;;13.06;100.00
47530;BME280;33272;51.922;7.730;2023-09-30T01:55:45;145739.75;;;13.06;100.00
47530;BME280;33272;51.922;7.730;2023-09-30T01:58:15;145741.00;;;13.07;100.00
47530;BME280;33272;51.922;7.730;2023-09-30T02:00:41;145738.47;;;13.06;100.00
47530;BME280;33272;51.922;7.730;2023-09-30T02:03:08;145737.22;;;13.05;100.00
47530;BME280;33272;51.922;7.730;2023-09-30T02:05:36;145737.22;;;13.05;100.00
47530;BME280;33272;51.922;7.730;2023-09-30T02:08:04;145734.66;;;13.04;100.00
47530;BME280;33272;51.922;7.730;2023-09-30T02:10:32;145732.13;;;13.03;100.00
47530;BME280;33272;51.922;7.730;2023-09-30T02:12:59;145724.50;;;13.00;100.00
47530;BME280;33272;51.922;7.730;2023-09-30T02:15:28;145723.25;;;12.99;100.00
47530;BME280;33272;51.922;7.730;2023-09-30T02:17:55;145713.03;;;12.95;100.00
47530;BME280;33272;51.922;7.730;2023-09-30T02:20:22;145702.91;;;12.91;100.00
47530;BME280;33272;51.922;7.730;2023-09-30T02:22:52;145701.63;;;12.91;100.00
47530;BME280;33272;51.922;7.730;2023-09-30T02:25:19;145696.53;;;12.89;100.00
47530;BME280;33272;51.922;7.730;2023-09-30T02:27:47;145694.03;;;12.88;100.00
47530;BME280;33272;51.922;7.730;2023-09-30T02:30:15;145683.88;;;12.84;100.00
47530;BME280;33272;51.922;7.730;2023-09-30T02:32:44;145683.88;;;12.84;100.00
47530;BME280;33272;51.922;7.730;2023-09-30T02:35:12;145680.03;;;12.82;100.00
47530;BME280;33272;51.922;7.730;2023-09-30T02:37:41;145677.53;;;12.81;100.00
47530;BME280;33272;51.922;7.730;2023-09-30T02:40:08;145678.78;;;12.82;100.00
47530;BME280;33272;51.922;7.730;2023-09-30T02:42:36;145676.25;;;12.81;100.00
47530;BME280;33272;51.922;7.730;2023-09-30T02:45:04;145671.16;;;12.79;100.00
47530;BME280;33272;51.922;7.730;2023-09-30T02:47:31;145662.28;;;12.75;100.00
47530;BME280;33272;51.922;7.730;2023-09-30T02:50:01;145661.00;;;12.74;100.00
47530;BME280;33272;51.922;7.730;2023-09-30T02:52:28;145650.88;;;12.70;100.00
47530;BME280;33272;51.922;7.730;2023-09-30T02:54:55;145649.56;;;12.70;100.00
47530;BME280;33272;51.922;7.730;2023-09-30T02:57:23;145645.78;;;12.68;100.00
47530;BME280;33272;51.922;7.730;2023-09-30T02:59:51;145647.03;;;12.69;100.00
47530;BME280;33272;51.922;7.730;2023-09-30T03:02:19;145645.78;;;12.68;100.00
47530;BME280;33272;51.922;7.730;2023-09-30T03:04:48;145647.03;;;12.69;100.00
47530;BME280;33272;51.922;7.730;2023-09-30T03:07:18;145640.69;;;12.66;100.00
47530;BME280;33272;51.922;7.730;2023-09-30T03:09:46;145639.41;;;12.66;100.00
47530;BME280;33272;51.922;7.730;2023-09-30T03:12:13;145639.41;;;12.66;100.00
47530;BME280;33272;51.922;7.730;2023-09-30T03:14:40;145638.16;;;12.65;100.00
47530;BME280;33272;51.922;7.730;2023-09-30T03:17:08;145626.72;;;12.61;100.00
47530;BME280;33272;51.922;7.730;2023-09-30T03:19:37;145631.81;;;12.63;100.00
47530;BME280;33272;51.922;7.730;2023-09-30T03:22:04;145625.44;;;12.60;100.00
47530;BME280;33272;51.922;7.730;2023-09-30T03:24:33;145622.91;;;12.59;100.00
47530;BME280;33272;51.922;7.730;2023-09-30T03:27:00;145615.31;;;12.56;100.00
47530;BME280;33272;51.922;7.730;2023-09-30T03:29:27;145611.47;;;12.55;100.00
47530;BME280;33272;51.922;7.730;2023-09-30T03:31:54;145608.94;;;12.53;100.00
47530;BME280;33272;51.922;7.730;2023-09-30T03:34:22;145601.31;;;12.50;100.00
47530;BME280;33272;51.922;7.730;2023-09-30T03:36:49;145596.28;;;12.48;100.00
47530;BME280;33272;51.922;7.730;2023-09-30T03:39:16;145586.09;;;12.44;100.00
47530;BME280;33272;51.922;7.730;2023-09-30T03:41:54;145578.47;;;12.41;100.00
47530;BME280;33272;51.922;7.730;2023-09-30T03:44:21;145569.59;;;12.38;100.00
47530;BME280;33272;51.922;7.730;2023-09-30T03:46:50;145560.72;;;12.34;100.00
47530;BME280;33272;51.922;7.730;2023-09-30T03:49:17;145546.75;;;12.28;100.00
47530;BME280;33272;51.922;7.730;2023-09-30T03:51:45;145540.38;;;12.26;100.00
47530;BME280;33272;51.922;7.730;2023-09-30T03:54:12;145527.72;;;12.21;100.00
47530;BME280;33272;51.922;7.730;2023-09-30T03:56:39;145521.38;;;12.18;100.00
47530;BME280;33272;51.922;7.730;2023-09-30T03:59:09;145518.84;;;12.17;100.00
47530;BME280;33272;51.922;7.730;2023-09-30T04:01:36;145511.22;;;12.14;100.00
47530;BME280;33272;51.922;7.730;2023-09-30T04:04:06;145503.63;;;12.11;100.00
47530;BME280;33272;51.922;7.730;2023-09-30T04:06:35;145497.25;;;12.09;100.00
47530;BME280;33272;51.922;7.730;2023-09-30T04:09:04;145490.91;;;12.06;100.00
47530;BME280;33272;51.922;7.730;2023-09-30T04:11:36;145484.56;;;12.03;100.00
47530;BME280;33272;51.922;7.730;2023-09-30T04:14:04;145479.50;;;12.01;100.00
47530;BME280;33272;51.922;7.730;2023-09-30T04:16:33;145470.59;;;11.98;100.00
47530;BME280;33272;51.922;7.730;2023-09-30T04:19:01;145464.28;;;11.95;100.00
47530;BME280;33272;51.922;7.730;2023-09-30T04:21:28;145452.84;;;11.91;100.00
47530;BME280;33272;51.922;7.730;2023-09-30T04:23:57;145449.06;;;11.89;100.00
47530;BME280;33272;51.922;7.730;2023-09-30T04:26:24;145437.59;;;11.85;100.00
47530;BME280;33272;51.922;7.730;2023-09-30T04:28:51;145432.50;;;11.82;100.00
47530;BME280;33272;51.922;7.730;2023-09-30T04:31:19;145429.94;;;11.81;100.00
47530;BME280;33272;51.922;7.730;2023-09-30T04:33:48;145421.06;;;11.78;100.00
47530;BME280;33272;51.922;7.730;2023-09-30T04:36:16;145412.19;;;11.74;100.00
47530;BME280;33272;51.922;7.730;2023-09-30T04:38:43;145402.06;;;11.70;100.00
47530;BME280;33272;51.922;7.730;2023-09-30T04:41:10;145386.84;;;11.64;100.00
47530;BME280;33272;51.922;7.730;2023-09-30T04:43:38;145374.13;;;11.59;100.00
47530;BME280;33272;51.922;7.730;2023-09-30T04:46:05;145364.00;;;11.55;100.00
47530;BME280;33272;51.922;7.730;2023-09-30T04:48:34;145356.38;;;11.52;100.00
47530;BME280;33272;51.922;7.730;2023-09-30T04:51:06;145347.50;;;11.48;100.00
47530;BME280;33272;51.922;7.730;2023-09-30T04:53:34;145338.63;;;11.45;100.00
47530;BME280;33272;51.922;7.730;2023-09-30T04:56:02;145333.56;;;11.43;100.00
47530;BME280;33272;51.922;7.730;2023-09-30T04:58:29;145331.03;;;11.42;100.00
47530;BME280;33272;51.922;7.730;2023-09-30T05:00:57;145327.19;;;11.40;100.00
47530;BME280;33272;51.922;7.730;2023-09-30T05:03:24;145336.06;;;11.44;100.00
47530;BME280;33272;51.922;7.730;2023-09-30T05:05:51;145339.91;;;11.45;100.00
47530;BME280;33272;51.922;7.730;2023-09-30T05:08:22;145344.94;;;11.47;100.00
47530;BME280;33272;51.922;7.730;2023-09-30T05:10:49;145348.78;;;11.49;100.00
47530;BME280;33272;51.922;7.730;2023-09-30T05:13:16;145357.66;;;11.52;100.00
47530;BME280;33272;51.922;7.730;2023-09-30T05:15:44;145366.53;;;11.56;100.00
47530;BME280;33272;51.922;7.730;2023-09-30T05:18:12;145376.66;;;11.60;100.00
47530;BME280;33272;51.922;7.730;2023-09-30T05:20:39;145376.66;;;11.60;100.00
47530;BME280;33272;51.922;7.730;2023-09-30T05:23:07;145380.47;;;11.62;100.00
47530;BME280;33272;51.922;7.730;2023-09-30T05:25:35;145389.34;;;11.65;100.00
47530;BME280;33272;51.922;7.730;2023-09-30T05:28:03;145369.09;;;11.57;100.00
47530;BME280;33272;51.922;7.730;2023-09-30T05:30:31;145372.88;;;11.58;100.00
47530;BME280;33272;51.922;7.730;2023-09-30T05:32:59;145369.09;;;11.57;100.00
47530;BME280;33272;51.922;7.730;2023-09-30T05:35:26;145377.97;;;11.60;100.00
47530;BME280;33272;51.922;7.730;2023-09-30T05:37:54;145365.25;;;11.55;100.00
47530;BME280;33272;51.922;7.730;2023-09-30T05:40:21;145369.09;;;11.57;100.00
47530;BME280;33272;51.922;7.730;2023-09-30T05:42:52;145375.38;;;11.59;100.00
47530;BME280;33272;51.922;7.730;2023-09-30T05:45:19;145372.88;;;11.58;100.00
47530;BME280;33272;51.922;7.730;2023-09-30T05:47:47;145375.38;;;11.59;100.00
47530;BME280;33272;51.922;7.730;2023-09-30T05:50:14;145371.63;;;11.58;100.00
47530;BME280;33272;51.922;7.730;2023-09-30T05:52:42;145374.13;;;11.59;100.00
47530;BME280;33272;51.922;7.730;2023-09-30T05:55:10;145375.38;;;11.59;100.00
47530;BME280;33272;51.922;7.730;2023-09-30T05:57:37;145375.38;;;11.59;100.00
47530;BME280;33272;51.922;7.730;2023-09-30T06:00:10;145381.75;;;11.62;100.00
47530;BME280;33272;51.922;7.730;2023-09-30T06:02:40;145383.00;;;11.63;100.00
47530;BME280;33272;51.922;7.730;2023-09-30T06:05:09;145385.56;;;11.64;100.00
47530;BME280;33272;51.922;7.730;2023-09-30T06:07:36;145391.88;;;11.66;100.00
47530;BME280;33272;51.922;7.730;2023-09-30T06:10:04;145398.22;;;11.69;100.00
47530;BME280;33272;51.922;7.730;2023-09-30T06:12:31;145400.81;;;11.70;100.00
47530;BME280;33272;51.922;7.730;2023-09-30T06:14:58;145408.41;;;11.73;100.00
47530;BME280;33272;51.922;7.730;2023-09-30T06:17:26;145417.28;;;11.76;100.00
47530;BME280;33272;51.922;7.730;2023-09-30T06:19:53;145428.69;;;11.81;100.00
47530;BME280;33272;51.922;7.730;2023-09-30T06:22:20;145440.19;;;11.86;100.00
47530;BME280;33272;51.922;7.730;2023-09-30T06:24:49;145452.84;;;11.91;100.00
47530;BME280;33272;51.922;7.730;2023-09-30T06:27:16;145464.28;;;11.95;100.00
47530;BME280;33272;51.922;7.730;2023-09-30T06:29:44;145475.69;;;12.00;100.00
47530;BME280;33272;51.922;7.730;2023-09-30T06:32:12;145483.28;;;12.03;100.00
47530;BME280;33272;51.922;7.730;2023-09-30T06:34:40;145498.53;;;12.09;100.00
47530;BME280;33272;51.922;7.730;2023-09-30T06:37:08;145506.13;;;12.12;100.00
47530;BME280;33272;51.922;7.730;2023-09-30T06:39:35;145523.91;;;12.19;100.00
47530;BME280;33272;51.922;7.730;2023-09-30T06:42:03;145540.38;;;12.26;100.00
47530;BME280;33272;51.922;7.730;2023-09-30T06:44:30;145555.63;;;12.32;100.00
47530;BME280;33272;51.922;7.730;2023-09-30T06:46:57;145572.13;;;12.39;100.00
47530;BME280;33272;51.922;7.730;2023-09-30T06:49:24;145586.09;;;12.44;100.00
47530;BME280;33272;51.922;7.730;2023-09-30T06:51:52;145603.91;;;12.51;100.00
47530;BME280;33272;51.922;7.730;2023-09-30T06:54:19;145616.56;;;12.57;100.00
47530;BME280;33272;51.922;7.730;2023-09-30T06:56:46;145638.16;;;12.65;100.00
47530;BME280;33272;51.922;7.730;2023-09-30T06:59:13;145655.91;;;12.72;100.00
47530;BME280;33272;51.922;7.730;2023-09-30T07:01:40;145678.78;;;12.82;100.00
47530;BME280;33272;51.922;7.730;2023-09-30T07:04:07;145699.13;;;12.90;100.00
47530;BME280;33272;51.922;7.730;2023-09-30T07:06:35;145711.78;;;12.95;100.00
47530;BME280;33272;51.922;7.730;2023-09-30T07:09:03;145729.59;;;13.02;100.00
47530;BME280;33272;51.922;7.730;2023-09-30T07:11:31;145765.13;;;13.16;100.00
47530;BME280;33272;51.922;7.730;2023-09-30T07:13:58;145786.78;;;13.25;100.00
47530;BME280;33272;51.922;7.730;2023-09-30T07:16:26;145809.66;;;13.34;100.00
47530;BME280;33272;51.922;7.730;2023-09-30T07:18:53;145826.16;;;13.41;100.00
47530;BME280;33272;51.922;7.730;2023-09-30T07:21:21;145852.81;;;13.52;100.00
47530;BME280;33272;51.922;7.730;2023-09-30T07:23:47;145864.28;;;13.56;100.00
47530;BME280;33272;51.922;7.730;2023-09-30T07:26:16;145871.91;;;13.59;100.00
47530;BME280;33272;51.922;7.730;2023-09-30T07:28:43;145897.31;;;13.70;100.00
47530;BME280;33272;51.922;7.730;2023-09-30T07:31:10;145883.31;;;13.64;100.00
47530;BME280;33272;51.922;7.730;2023-09-30T07:33:37;145902.41;;;13.72;100.00
47530;BME280;33272;51.922;7.730;2023-09-30T07:36:05;145920.19;;;13.79;100.00
47530;BME280;33272;51.922;7.730;2023-09-30T07:38:32;145944.34;;;13.88;100.00
47530;BME280;33272;51.922;7.730;2023-09-30T07:41:00;145963.38;;;13.96;100.00
47530;BME280;33272;51.922;7.730;2023-09-30T07:43:30;145995.16;;;14.09;100.00
47530;BME280;33272;51.922;7.730;2023-09-30T07:45:57;146004.09;;;14.12;100.00
47530;BME280;33272;51.922;7.730;2023-09-30T07:48:24;146026.94;;;14.22;100.00
47530;BME280;33272;51.922;7.730;2023-09-30T07:50:51;146058.75;;;14.34;100.00
47530;BME280;33272;51.922;7.730;2023-09-30T07:53:19;146075.28;;;14.41;100.00
47530;BME280;33272;51.922;7.730;2023-09-30T07:55:46;146100.75;;;14.51;100.00
47530;BME280;33272;51.922;7.730;2023-09-30T07:58:12;146122.38;;;14.60;100.00
47530;BME280;33272;51.922;7.730;2023-09-30T08:00:41;146136.31;;;14.66;100.00
47530;BME280;33272;51.922;7.730;2023-09-30T08:03:08;146159.22;;;14.75;100.00
47530;BME280;33272;51.922;7.730;2023-09-30T08:05:35;146183.38;;;14.84;100.00
47530;BME280;33272;51.922;7.730;2023-09-30T08:08:03;146205.00;;;14.93;100.00
47530;BME280;33272;51.922;7.730;2023-09-30T08:10:31;146230.44;;;15.03;100.00
47530;BME280;33272;51.922;7.730;2023-09-30T08:12:59;146240.66;;;15.07;100.00
47530;BME280;33272;51.922;7.730;2023-09-30T08:15:28;146263.56;;;15.17;100.00
47530;BME280;33272;51.922;7.730;2023-09-30T08:17:57;146283.88;;;15.25;100.00
47530;BME280;33272;51.922;7.730;2023-09-30T08:20:24;146304.25;;;15.33;100.00
47530;BME280;33272;51.922;7.730;2023-09-30T08:22:51;146325.91;;;15.42;100.00
47530;BME280;33272;51.922;7.730;2023-09-30T08:25:18;146337.31;;;15.46;100.00
47530;BME280;33272;51.922;7.730;2023-09-30T08:27:45;146367.88;;;15.59;100.00
47530;BME280;33272;51.922;7.730;2023-09-30T08:30:15;146394.63;;;15.69;100.00
47530;BME280;33272;51.922;7.730;2023-09-30T08:32:43;146425.19;;;15.82;100.00
47530;BME280;33272;51.922;7.730;2023-09-30T08:35:12;146457.00;;;15.94;100.00
47530;BME280;33272;51.922;7.730;2023-09-30T08:37:40;146483.75;;;16.05;100.00
47530;BME280;33272;51.922;7.730;2023-09-30T08:40:08;146479.91;;;16.04;100.00
47530;BME280;33272;51.922;7.730;2023-09-30T08:42:38;146496.47;;;16.10;100.00
47530;BME280;33272;51.922;7.730;2023-09-30T08:45:09;146510.47;;;16.16;100.00
47530;BME280;33272;51.922;7.730;2023-09-30T08:47:37;146541.03;;;16.28;100.00
47530;BME280;33272;51.922;7.730;2023-09-30T08:50:08;146562.69;;;16.37;100.00
47530;BME280;33272;51.922;7.730;2023-09-30T08:52:38;146558.84;;;16.35;100.00
47530;BME280;33272;51.922;7.730;2023-09-30T08:55:07;146593.28;;;16.49;100.00
47530;BME280;33272;51.922;7.730;2023-09-30T08:57:38;146581.78;;;16.44;100.00
47530;BME280;33272;51.922;7.730;2023-09-30T09:00:08;146598.34;;;16.51;100.00
47530;BME280;33272;51.922;7.730;2023-09-30T09:02:38;146600.91;;;16.52;100.00
47530;BME280;33272;51.922;7.730;2023-09-30T09:05:06;146622.53;;;16.61;100.00
47530;BME280;33272;51.922;7.730;2023-09-30T09:07:34;146651.84;;;16.73;100.00
47530;BME280;33272;51.922;7.730;2023-09-30T09:10:08;146651.84;;;16.73;100.00
47530;BME280;33272;51.922;7.730;2023-09-30T09:12:37;146660.78;;;16.76;100.00
47530;BME280;33272;51.922;7.730;2023-09-30T09:15:06;146660.78;;;16.76;100.00
47530;BME280;33272;51.922;7.730;2023-09-30T09:17:41;146678.63;;;16.83;100.00
47530;BME280;33272;51.922;7.730;2023-09-30T09:20:10;146673.53;;;16.81;100.00
47530;BME280;33272;51.922;7.730;2023-09-30T09:22:41;146696.47;;;16.90;100.00
47530;BME280;33272;51.922;7.730;2023-09-30T09:25:10;146730.88;;;17.04;100.00
47530;BME280;33272;51.922;7.730;2023-09-30T09:27:38;146765.28;;;17.18;100.00
47530;BME280;33272;51.922;7.730;2023-09-30T09:30:19;146778.00;;;17.23;100.00
47530;BME280;33272;51.922;7.730;2023-09-30T09:32:54;146811.13;;;17.36;100.00
47530;BME280;33272;51.922;7.730;2023-09-30T09:35:22;146827.69;;;17.43;100.00
47530;BME280;33272;51.922;7.730;2023-09-30T09:38:06;146854.47;;;17.54;100.00
47530;BME280;33272;51.922;7.730;2023-09-30T09:40:37;146872.31;;;17.61;100.00
47530;BME280;33272;51.922;7.730;2023-09-30T09:43:06;146883.81;;;17.66;100.00
47530;BME280;33272;51.922;7.730;2023-09-30T09:45:35;146891.47;;;17.69;100.00
47530;BME280;33272;51.922;7.730;2023-09-30T09:48:06;146906.75;;;17.75;100.00
47530;BME280;33272;51.922;7.730;2023-09-30T09:50:35;146902.91;;;17.73;100.00
47530;BME280;33272;51.922;7.730;2023-09-30T09:53:08;146925.91;;;17.82;100.00
47530;BME280;33272;51.922;7.730;2023-09-30T09:55:53;146956.50;;;17.95;100.00
47530;BME280;33272;51.922;7.730;2023-09-30T09:58:20;146965.44;;;17.98;100.00
47530;BME280;33272;51.922;7.730;2023-09-30T10:00:48;146967.97;;;17.99;100.00
47530;BME280;33272;51.922;7.730;2023-09-30T10:03:15;146974.34;;;18.02;100.00
47530;BME280;33272;51.922;7.730;2023-09-30T10:05:43;146969.22;;;18.00;100.00
47530;BME280;33272;51.922;7.730;2023-09-30T10:08:14;146985.84;;;18.06;100.00
47530;BME280;33272;51.922;7.730;2023-09-30T10:10:44;146999.84;;;18.12;100.00
47530;BME280;33272;51.922;7.730;2023-09-30T10:13:55;146999.84;;;18.12;100.00
47530;BME280;33272;51.922;7.730;2023-09-30T10:16:48;147061.06;;;18.37;100.00
47530;BME280;33272;51.922;7.730;2023-09-30T10:19:19;147084.03;;;18.46;100.00
47530;BME280;33272;51.922;7.730;2023-09-30T10:22:22;147105.72;;;18.55;97.28
47530;BME280;33272;51.922;7.730;2023-09-30T10:24:52;147156.78;;;18.75;100.00
47530;BME280;33272;51.922;7.730;2023-09-30T10:27:36;147174.66;;;18.82;100.00
47530;BME280;33272;51.922;7.730;2023-09-30T10:30:11;147170.81;;;18.81;98.36
47530;BME280;33272;51.922;7.730;2023-09-30T10:33:21;147159.34;;;18.76;91.28
47530;BME280;33272;51.922;7.730;2023-09-30T10:35:48;147192.50;;;18.89;99.35
47530;BME280;33272;51.922;7.730;2023-09-30T10:38:38;147188.66;;;18.88;95.70
47530;BME280;33272;51.922;7.730;2023-09-30T10:41:08;147206.56;;;18.95;98.06
47530;BME280;33272;51.922;7.730;2023-09-30T10:43:39;147211.63;;;18.97;96.74
47530;BME280;33272;51.922;7.730;2023-09-30T10:46:33;147211.63;;;18.97;90.93
47530;BME280;33272;51.922;7.730;2023-09-30T10:49:29;147226.94;;;19.03;90.44
47530;BME280;33272;51.922;7.730;2023-09-30T10:51:59;147275.44;;;19.22;96.63
47530;BME280;33272;51.922;7.730;2023-09-30T10:54:29;147326.50;;;19.43;97.03
47530;BME280;33272;51.922;7.730;2023-09-30T10:56:57;147346.91;;;19.51;95.40
47530;BME280;33272;51.922;7.730;2023-09-30T10:59:27;147391.63;;;19.69;94.58
47530;BME280;33272;51.922;7.730;2023-09-30T11:01:57;147404.44;;;19.74;94.15
47530;BME280;33272;51.922;7.730;2023-09-30T11:04:24;147422.28;;;19.81;91.90
47530;BME280;33272;51.922;7.730;2023-09-30T11:06:53;147427.41;;;19.83;93.38
47530;BME280;33272;51.922;7.730;2023-09-30T11:09:21;147472.06;;;20.01;93.27
47530;BME280;33272;51.922;7.730;2023-09-30T11:11:50;147528.25;;;20.24;92.15
47530;BME280;33272;51.922;7.730;2023-09-30T11:14:21;147581.91;;;20.45;92.31
47530;BME280;33272;51.922;7.730;2023-09-30T11:16:49;147579.38;;;20.44;87.02
47530;BME280;33272;51.922;7.730;2023-09-30T11:19:19;147612.63;;;20.57;90.30
47530;BME280;33272;51.922;7.730;2023-09-30T11:21:49;147547.44;;;20.31;87.88
47530;BME280;33272;51.922;7.730;2023-09-30T11:24:16;147561.50;;;20.37;84.49
47530;BME280;33272;51.922;7.730;2023-09-30T11:26:44;147587.03;;;20.47;87.80
47530;BME280;33272;51.922;7.730;2023-09-30T11:29:14;147636.88;;;20.67;87.87
47530;BME280;33272;51.922;7.730;2023-09-30T11:31:45;147647.16;;;20.71;87.08
47530;BME280;33272;51.922;7.730;2023-09-30T11:34:13;147638.16;;;20.68;87.58
47530;BME280;33272;51.922;7.730;2023-09-30T11:36:48;147665.03;;;20.78;86.43
47530;BME280;33272;51.922;7.730;2023-09-30T11:39:22;147629.22;;;20.64;84.66
47530;BME280;33272;51.922;7.730;2023-09-30T11:41:49;147613.88;;;20.58;87.00
47530;BME280;33272;51.922;7.730;2023-09-30T11:44:18;147597.28;;;20.51;86.29
47530;BME280;33272;51.922;7.730;2023-09-30T11:46:51;147552.56;;;20.33;79.41
47530;BME280;33272;51.922;7.730;2023-09-30T11:49:30;147504.00;;;20.14;81.66
47530;BME280;33272;51.922;7.730;2023-09-30T11:52:01;147544.91;;;20.30;83.97
47530;BME280;33272;51.922;7.730;2023-09-30T11:54:30;147569.16;;;20.40;84.08
47530;BME280;33272;51.922;7.730;2023-09-30T11:56:59;147581.91;;;20.45;83.51
47530;BME280;33272;51.922;7.730;2023-09-30T11:59:26;147595.97;;;20.51;82.86
47530;BME280;33272;51.922;7.730;2023-09-30T12:01:53;147602.41;;;20.53;82.74
47530;BME280;33272;51.922;7.730;2023-09-30T12:04:20;147647.16;;;20.71;82.43
47530;BME280;33272;51.922;7.730;2023-09-30T12:06:48;147679.09;;;20.84;81.74
47530;BME280;33272;51.922;7.730;2023-09-30T12:09:18;147685.44;;;20.87;80.12
47530;BME280;33272;51.922;7.730;2023-09-30T12:11:48;147737.84;;;21.08;80.85
47530;BME280;33272;51.922;7.730;2023-09-30T12:14:15;147725.03;;;21.02;80.13
47530;BME280;33272;51.922;7.730;2023-09-30T12:16:42;147753.19;;;21.14;80.17
47530;BME280;33272;51.922;7.730;2023-09-30T12:19:11;147819.66;;;21.40;80.05
47530;BME280;33272;51.922;7.730;2023-09-30T12:21:39;147895.13;;;21.70;79.83
47530;BME280;33272;51.922;7.730;2023-09-30T12:24:07;147955.22;;;21.94;79.33
47530;BME280;33272;51.922;7.730;2023-09-30T12:26:36;148029.44;;;22.24;79.63
47530;BME280;33272;51.922;7.730;2023-09-30T12:29:04;148031.97;;;22.25;78.19
47530;BME280;33272;51.922;7.730;2023-09-30T12:31:31;148044.78;;;22.30;75.25
47530;BME280;33272;51.922;7.730;2023-09-30T12:33:59;148003.81;;;22.14;77.31
47530;BME280;33272;51.922;7.730;2023-09-30T12:36:26;147964.19;;;21.98;76.83
47530;BME280;33272;51.922;7.730;2023-09-30T12:38:53;147975.66;;;22.03;77.46
47530;BME280;33272;51.922;7.730;2023-09-30T12:41:20;147965.44;;;21.98;75.00
47530;BME280;33272;51.922;7.730;2023-09-30T12:43:48;147979.53;;;22.04;76.85
47530;BME280;33272;51.922;7.730;2023-09-30T12:46:15;147962.91;;;21.97;76.60
47530;BME280;33272;51.922;7.730;2023-09-30T12:48:44;147919.41;;;21.80;74.22
47530;BME280;33272;51.922;7.730;2023-09-30T12:51:11;147877.22;;;21.63;74.17